Accueil
METAR-TAF:

METAR-TAF

Aéroports :

Plaisance, Italie

latitude: 44-55N, longitude: 009-44E, altitude: 134 m

Observation

Le bulletin a été fait il y a 6 heures et 38 minutes, à 17:55 UTC
Vent 5 kt de sud-est
Température 29°C
Humidité 58%
Pression 1017 hPa
Visibilité 10 km ou plus
pas de nuages en-dessous de 1500 mètres et pas de cumulonimbus.

METAR: LIMS 201755Z 14005KT CAVOK 29/20 Q1017 RMK SKC VIS MIN 9999 WIND THR30 10004KT BLU

Heure: 02:33 (00:33 UTC)


TAF: absent

Observations et prévisions météorologiques de plus de 4000 aéroports (messages METAR et TAF).

Les stations disponibles sont représentées par des disques jaunes et rouges sur la carte.

Passer la souris dessus pour voir le nom de la station.

Cliquer dessus pour voir les observations et prévisions météorologiques.

Pour changer de carte: cliquez sur les boutons verts avec une croix noire pour zoomer, sur le bouton vert avec un tiret pour effectuer un zoom arrière, ou sur les flèches vertes pour les cartes adjacentes.


METAR-TAF: